createdAt,value
2022-09-09T00:01:25.632Z,100622.28
2022-09-09T00:04:00.214Z,100619.41
2022-09-09T00:06:36.330Z,100613.47
2022-09-09T00:09:07.841Z,100615.97
2022-09-09T00:11:47.568Z,100614.59
2022-09-09T00:14:23.533Z,100600.81
2022-09-09T00:16:56.530Z,100611.06
2022-09-09T00:19:47.198Z,100621.88
2022-09-09T00:22:22.933Z,100615.47
2022-09-09T00:24:54.843Z,100614.66
2022-09-09T00:27:48.571Z,100614.09
2022-09-09T00:30:20.707Z,100616.97
2022-09-09T00:32:48.799Z,100614.28
2022-09-09T00:35:24.740Z,100618.44
2022-09-09T00:37:54.372Z,100610.38
2022-09-09T00:40:34.134Z,100608.69
2022-09-09T00:43:26.722Z,100613.94
2022-09-09T00:46:51.874Z,100617.09
2022-09-09T00:49:40.026Z,100609.59
2022-09-09T00:52:19.302Z,100612.75
2022-09-09T00:54:52.291Z,100611.06
2022-09-09T00:57:33.660Z,100611.25
2022-09-09T01:00:25.938Z,100607.16
2022-09-09T01:03:04.359Z,100617.09
2022-09-09T01:05:33.599Z,100613.38
2022-09-09T01:08:04.135Z,100605.88
2022-09-09T01:10:42.560Z,100611.53
2022-09-09T01:13:24.706Z,100586.28
2022-09-09T01:15:56.328Z,100599.19
2022-09-09T01:18:32.015Z,100603.94
2022-09-09T01:21:24.711Z,100605.81
2022-09-09T01:24:14.395Z,100598.22
2022-09-09T01:26:43.643Z,100601.78
2022-09-09T01:29:14.324Z,100575.59
2022-09-09T01:31:42.584Z,100617.03
2022-09-09T01:34:13.641Z,100595.47
2022-09-09T01:36:55.222Z,100604.41
2022-09-09T01:39:22.317Z,100614.66
2022-09-09T01:41:48.824Z,100587.38
2022-09-09T01:44:15.696Z,100599.84
2022-09-09T01:46:42.080Z,100590.81
2022-09-09T01:49:09.864Z,100594.09
2022-09-09T01:51:38.789Z,100586.63
2022-09-09T01:54:06.034Z,100589.88
2022-09-09T01:57:01.741Z,100599.63
2022-09-09T01:59:37.378Z,100595.81
2022-09-09T02:02:16.635Z,100585.50
2022-09-09T02:04:46.611Z,100601.28
2022-09-09T02:07:35.701Z,100591.13
2022-09-09T02:10:11.322Z,100605.06
2022-09-09T02:12:42.603Z,100597.25
2022-09-09T02:15:36.536Z,100596.47
2022-09-09T02:18:09.225Z,100605.00
2022-09-09T02:20:39.199Z,100601.94
2022-09-09T02:23:09.539Z,100589.91
2022-09-09T02:25:38.146Z,100564.50
2022-09-09T02:28:08.799Z,100553.25
2022-09-09T02:30:37.345Z,100576.09
2022-09-09T02:33:08.375Z,100573.41
2022-09-09T02:35:38.542Z,100603.44
2022-09-09T02:38:07.149Z,100589.75
2022-09-09T02:40:33.666Z,100595.91
2022-09-09T02:43:01.084Z,100583.72
2022-09-09T02:45:37.426Z,100590.22
2022-09-09T02:48:10.311Z,100596.78
2022-09-09T02:50:49.019Z,100579.06
2022-09-09T02:53:23.845Z,100588.25
2022-09-09T02:56:07.187Z,100575.03
2022-09-09T02:58:34.358Z,100564.38
2022-09-09T03:01:03.794Z,100575.78
2022-09-09T03:03:31.266Z,100599.13
2022-09-09T03:05:58.015Z,100592.41
2022-09-09T03:08:24.543Z,100554.44
2022-09-09T03:10:50.929Z,100591.63
2022-09-09T03:13:20.223Z,100591.31
2022-09-09T03:15:46.587Z,100590.63
2022-09-09T03:18:12.991Z,100589.97
2022-09-09T03:20:39.383Z,100568.56
2022-09-09T03:23:05.950Z,100585.31
2022-09-09T03:25:32.973Z,100595.84
2022-09-09T03:27:59.376Z,100595.00
2022-09-09T03:30:27.975Z,100606.09
2022-09-09T03:32:54.639Z,100599.03
2022-09-09T03:35:21.094Z,100593.00
2022-09-09T03:37:47.932Z,100548.38
2022-09-09T03:40:15.004Z,100593.56
2022-09-09T03:42:41.500Z,100554.25
2022-09-09T03:45:10.313Z,100600.63
2022-09-09T03:47:37.064Z,100596.59
2022-09-09T03:50:05.208Z,100602.34
2022-09-09T03:52:31.724Z,100558.44
2022-09-09T03:54:58.318Z,100556.78
2022-09-09T03:57:24.813Z,100594.81
2022-09-09T03:59:51.151Z,100592.00
2022-09-09T04:02:17.662Z,100606.59
2022-09-09T04:04:44.114Z,100582.09
2022-09-09T04:07:10.924Z,100608.94
2022-09-09T04:09:37.355Z,100590.84
2022-09-09T04:12:03.907Z,100610.97
2022-09-09T04:14:30.286Z,100609.28
2022-09-09T04:16:59.190Z,100601.06
2022-09-09T04:19:25.834Z,100597.88
2022-09-09T04:21:52.619Z,100594.19
2022-09-09T04:24:19.823Z,100618.50
2022-09-09T04:26:46.467Z,100615.81
2022-09-09T04:29:13.010Z,100622.03
2022-09-09T04:31:42.882Z,100581.28
2022-09-09T04:34:12.391Z,100599.22
2022-09-09T04:36:40.170Z,100619.69
2022-09-09T04:39:07.038Z,100615.81
2022-09-09T04:41:33.502Z,100579.75
2022-09-09T04:44:01.722Z,100573.72
2022-09-09T04:46:28.194Z,100601.41
2022-09-09T04:48:54.753Z,100590.13
2022-09-09T04:51:21.253Z,100611.75
2022-09-09T04:53:48.562Z,100624.16
2022-09-09T04:56:16.996Z,100641.41
2022-09-09T04:58:43.997Z,100612.91
2022-09-09T05:01:16.969Z,100609.03
2022-09-09T05:03:43.449Z,100636.97
2022-09-09T05:06:12.072Z,100618.84
2022-09-09T05:08:39.423Z,100634.25
2022-09-09T05:11:20.990Z,100599.88
2022-09-09T05:13:48.048Z,100605.97
2022-09-09T05:16:15.288Z,100601.56
2022-09-09T05:18:43.678Z,100580.13
2022-09-09T05:21:11.361Z,100583.16
2022-09-09T05:23:38.539Z,100638.75
2022-09-09T05:26:06.221Z,100622.03
2022-09-09T05:28:36.351Z,100628.03
2022-09-09T05:31:09.087Z,100639.84
2022-09-09T05:33:41.563Z,100610.28
2022-09-09T05:36:17.139Z,100652.84
2022-09-09T05:38:44.917Z,100615.47
2022-09-09T05:41:18.313Z,100647.22
2022-09-09T05:43:46.541Z,100481.03
2022-09-09T05:46:15.733Z,100560.94
2022-09-09T05:48:46.897Z,100517.25
2022-09-09T05:51:20.655Z,100587.00
2022-09-09T05:53:47.984Z,100479.19
2022-09-09T05:56:30.644Z,100646.06
2022-09-09T05:59:02.563Z,100545.94
2022-09-09T06:01:36.798Z,100537.56
2022-09-09T06:04:05.135Z,100595.75
2022-09-09T06:06:37.944Z,100557.00
2022-09-09T06:09:12.456Z,100541.34
2022-09-09T06:11:40.917Z,100486.81
2022-09-09T06:14:08.554Z,100493.41
2022-09-09T06:16:36.210Z,100684.94
2022-09-09T06:19:06.481Z,100505.53
2022-09-09T06:21:37.346Z,100694.75
2022-09-09T06:24:04.986Z,100572.56
2022-09-09T06:26:34.432Z,100462.91
2022-09-09T06:29:03.637Z,100512.41
2022-09-09T06:31:32.694Z,100540.53
2022-09-09T06:34:00.343Z,100588.59
2022-09-09T06:36:32.569Z,100719.72
2022-09-09T06:39:00.589Z,100558.91
2022-09-09T06:41:32.983Z,100697.41
2022-09-09T06:44:00.132Z,100621.91
2022-09-09T06:46:34.533Z,100660.94
2022-09-09T06:49:03.844Z,100700.94
2022-09-09T06:51:36.384Z,100559.31
2022-09-09T06:54:05.691Z,100554.31
2022-09-09T06:56:39.311Z,100599.38
2022-09-09T06:59:10.215Z,100576.50
2022-09-09T07:01:42.172Z,100594.34
2022-09-09T07:04:12.297Z,100630.13
2022-09-09T07:06:44.324Z,100631.22
2022-09-09T07:09:14.042Z,100586.88
2022-09-09T07:11:44.565Z,100631.88
2022-09-09T07:14:15.099Z,100644.41
2022-09-09T07:16:43.142Z,100673.50
2022-09-09T07:19:12.587Z,100635.78
2022-09-09T07:21:43.325Z,100612.94
2022-09-09T07:24:14.880Z,100619.53
2022-09-09T07:26:44.107Z,100588.72
2022-09-09T07:29:18.498Z,100596.19
2022-09-09T07:31:47.049Z,100704.69
2022-09-09T07:34:13.603Z,100701.84
2022-09-09T07:36:43.018Z,100694.78
2022-09-09T07:39:14.180Z,100713.03
2022-09-09T07:41:48.854Z,100713.09
2022-09-09T07:44:18.215Z,100699.53
2022-09-09T07:46:46.366Z,100681.75
2022-09-09T07:49:13.508Z,100702.25
2022-09-09T07:51:42.339Z,100711.97
2022-09-09T07:54:12.059Z,100678.38
2022-09-09T07:56:40.407Z,100716.00
2022-09-09T07:59:07.896Z,100703.88
2022-09-09T08:01:40.086Z,100706.03
2022-09-09T08:04:18.251Z,100735.53
2022-09-09T08:06:51.568Z,100742.41
2022-09-09T08:09:18.287Z,100736.63
2022-09-09T08:11:45.276Z,100706.81
2022-09-09T08:14:12.803Z,100743.56
2022-09-09T08:16:45.105Z,100735.72
2022-09-09T08:19:11.760Z,100727.34
2022-09-09T08:21:41.047Z,100732.81
2022-09-09T08:24:08.868Z,100743.28
2022-09-09T08:26:38.250Z,100747.06
2022-09-09T08:29:07.676Z,100722.31
2022-09-09T08:31:38.167Z,100746.38
2022-09-09T08:34:05.924Z,100744.69
2022-09-09T08:36:35.936Z,100747.28
2022-09-09T08:39:03.177Z,100735.91
2022-09-09T08:42:01.370Z,100756.19
2022-09-09T08:44:31.889Z,100750.00
2022-09-09T08:47:24.709Z,100742.53
2022-09-09T08:50:20.791Z,100745.94
2022-09-09T08:52:56.479Z,100759.09
2022-09-09T08:55:28.943Z,100741.19
2022-09-09T08:57:58.740Z,100745.81
2022-09-09T09:00:36.371Z,100766.31
2022-09-09T09:03:28.680Z,100766.97
2022-09-09T09:06:10.413Z,100760.53
2022-09-09T09:08:58.648Z,100771.00
2022-09-09T09:11:25.223Z,100774.16
2022-09-09T09:13:58.021Z,100768.31
2022-09-09T09:17:02.477Z,100771.25
2022-09-09T09:19:31.741Z,100756.66
2022-09-09T09:22:00.829Z,100769.84
2022-09-09T09:24:39.920Z,100773.38
2022-09-09T09:27:21.912Z,100770.88
2022-09-09T09:30:21.061Z,100773.56
2022-09-09T09:32:41.944Z,100750.41
2022-09-09T09:35:13.555Z,100729.75
2022-09-09T09:40:28.571Z,100760.78
2022-09-09T09:43:08.774Z,100743.69
2022-09-09T09:46:00.981Z,100777.22
2022-09-09T09:48:35.824Z,100765.94
2022-09-09T09:51:11.466Z,100757.50
2022-09-09T09:53:39.813Z,100770.53
2022-09-09T09:56:09.096Z,100772.91
2022-09-09T09:58:47.467Z,100769.97
2022-09-09T10:01:25.774Z,100764.59
2022-09-09T10:03:54.770Z,100775.25
2022-09-09T10:06:35.911Z,100762.09
2022-09-09T10:09:05.236Z,100779.00
2022-09-09T10:11:39.396Z,100763.25
2022-09-09T10:14:20.957Z,100777.84
2022-09-09T10:17:28.105Z,100767.63
2022-09-09T10:20:36.284Z,100778.75
2022-09-09T10:23:37.826Z,100751.66
2022-09-09T10:26:38.365Z,100765.22
2022-09-09T10:29:26.030Z,100766.91
2022-09-09T10:32:07.494Z,100761.97
2022-09-09T10:34:53.180Z,100765.50
2022-09-09T10:37:43.890Z,100773.31
2022-09-09T10:40:43.191Z,100763.28
2022-09-09T10:43:27.625Z,100757.97
2022-09-09T10:46:03.584Z,100742.50
2022-09-09T10:48:59.929Z,100723.47
2022-09-09T10:52:04.888Z,100751.13
2022-09-09T10:54:42.938Z,100768.06
2022-09-09T10:57:26.356Z,100744.47
2022-09-09T11:00:05.254Z,100767.47
2022-09-09T11:02:36.886Z,100764.16
2022-09-09T11:05:17.229Z,100759.91
2022-09-09T11:08:00.178Z,100758.16
2022-09-09T11:11:04.768Z,100757.91
2022-09-09T11:13:46.818Z,100754.88
2022-09-09T11:16:20.702Z,100746.09
2022-09-09T11:18:48.317Z,100721.09
2022-09-09T11:21:27.918Z,100755.34
2022-09-09T11:24:03.343Z,100745.31
2022-09-09T11:26:37.020Z,100752.06
2022-09-09T11:29:51.420Z,100756.56
2022-09-09T11:33:03.031Z,100765.22
2022-09-09T11:35:39.438Z,100759.84
2022-09-09T11:38:23.967Z,100754.47
2022-09-09T11:41:03.602Z,100761.38
2022-09-09T11:43:39.781Z,100739.63
2022-09-09T11:46:06.707Z,100764.59
2022-09-09T11:48:36.650Z,100756.22
2022-09-09T11:51:26.785Z,100759.63
2022-09-09T11:53:58.266Z,100754.34
2022-09-09T11:56:28.288Z,100752.91
2022-09-09T11:58:59.245Z,100760.63
2022-09-09T12:01:42.574Z,100756.38
2022-09-09T12:04:30.759Z,100755.06
2022-09-09T12:07:01.780Z,100756.44
2022-09-09T12:09:59.841Z,100739.84
2022-09-09T12:12:32.792Z,100720.22
2022-09-09T12:15:04.278Z,100743.31
2022-09-09T12:17:34.267Z,100751.16
2022-09-09T12:20:20.271Z,100726.44
2022-09-09T12:22:52.635Z,100741.63
2022-09-09T12:25:40.953Z,100742.50
2022-09-09T12:28:18.844Z,100743.00
2022-09-09T12:30:52.834Z,100733.28
2022-09-09T12:33:20.266Z,100742.78
2022-09-09T12:35:55.513Z,100747.53
2022-09-09T12:38:34.930Z,100734.06
2022-09-09T12:41:01.469Z,100743.28
2022-09-09T12:43:29.598Z,100711.09
2022-09-09T12:46:01.427Z,100733.56
2022-09-09T12:48:46.688Z,100734.91
2022-09-09T12:51:26.119Z,100728.53
2022-09-09T12:53:53.106Z,100715.09
2022-09-09T12:56:22.284Z,100742.63
2022-09-09T12:58:52.548Z,100715.91
2022-09-09T13:01:26.303Z,100726.91
2022-09-09T13:03:53.935Z,100720.69
2022-09-09T13:06:28.866Z,100743.91
2022-09-09T13:09:01.015Z,100738.25
2022-09-09T13:11:35.994Z,100737.75
2022-09-09T13:14:03.258Z,100726.19
2022-09-09T13:16:33.429Z,100735.75
2022-09-09T13:19:08.137Z,100735.66
2022-09-09T13:21:40.892Z,100730.31
2022-09-09T13:24:32.067Z,100746.84
2022-09-09T13:27:21.639Z,100753.72
2022-09-09T13:29:58.048Z,100763.25
2022-09-09T13:32:27.850Z,100735.00
2022-09-09T13:35:02.495Z,100736.22
2022-09-09T13:37:37.790Z,100766.44
2022-09-09T13:40:07.196Z,100745.13
2022-09-09T13:42:40.105Z,100759.78
2022-09-09T13:45:07.138Z,100775.75
2022-09-09T13:47:35.903Z,100785.00
2022-09-09T13:50:34.952Z,100782.13
2022-09-09T13:53:01.417Z,100755.00
2022-09-09T13:55:29.696Z,100761.06
2022-09-09T13:58:04.350Z,100791.72
2022-09-09T14:00:33.056Z,100782.75
2022-09-09T14:03:02.533Z,100781.94
2022-09-09T14:05:30.855Z,100774.84
2022-09-09T14:07:58.982Z,100781.72
2022-09-09T14:10:25.321Z,100758.59
2022-09-09T14:12:52.044Z,100784.00
2022-09-09T14:15:18.679Z,100778.81
2022-09-09T14:17:45.136Z,100780.06
2022-09-09T14:20:13.102Z,100759.41
2022-09-09T14:22:40.260Z,100777.13
2022-09-09T14:25:07.607Z,100776.28
2022-09-09T14:27:34.601Z,100760.03
2022-09-09T14:30:01.828Z,100778.38
2022-09-09T14:32:28.734Z,100742.47
2022-09-09T14:34:55.142Z,100766.66
2022-09-09T14:37:21.741Z,100755.59
2022-09-09T14:39:48.566Z,100744.53
2022-09-09T14:42:15.119Z,100754.34
2022-09-09T14:44:41.701Z,100744.56
2022-09-09T14:47:09.148Z,100755.59
2022-09-09T14:49:36.205Z,100734.53
2022-09-09T14:52:03.406Z,100750.16
2022-09-09T14:54:30.084Z,100732.84
2022-09-09T14:56:58.072Z,100757.47
2022-09-09T14:59:24.634Z,100738.47
2022-09-09T15:01:51.209Z,100741.63
2022-09-09T15:04:17.878Z,100759.56
2022-09-09T15:06:47.976Z,100744.53
2022-09-09T15:09:14.554Z,100778.97
2022-09-09T15:11:41.055Z,100777.88
2022-09-09T15:14:09.398Z,100723.66
2022-09-09T15:16:36.512Z,100745.38
2022-09-09T15:19:03.845Z,100752.06
2022-09-09T15:21:33.047Z,100773.31
2022-09-09T15:24:00.222Z,100769.56
2022-09-09T15:26:28.065Z,100777.88
2022-09-09T15:28:55.728Z,100770.59
2022-09-09T15:31:24.743Z,100755.59
2022-09-09T15:34:02.029Z,100734.94
2022-09-09T15:36:29.790Z,100753.31
2022-09-09T15:38:56.975Z,100719.13
2022-09-09T15:41:24.539Z,100718.09
2022-09-09T15:43:53.028Z,100761.88
2022-09-09T15:46:33.253Z,100760.41
2022-09-09T15:49:22.913Z,100758.75
2022-09-09T15:52:03.205Z,100759.19
2022-09-09T15:54:33.034Z,100746.66
2022-09-09T15:57:02.111Z,100750.19
2022-09-09T15:59:30.696Z,100729.13
2022-09-09T16:01:57.666Z,100755.38
2022-09-09T16:04:25.598Z,100754.41
2022-09-09T16:06:59.377Z,100741.25
2022-09-09T16:09:27.085Z,100761.06
2022-09-09T16:11:54.920Z,100770.88
2022-09-09T16:14:21.966Z,100753.78
2022-09-09T16:16:49.266Z,100734.56
2022-09-09T16:19:16.840Z,100729.13
2022-09-09T16:21:51.409Z,100730.16
2022-09-09T16:24:20.311Z,100754.47
2022-09-09T16:26:49.918Z,100728.56
2022-09-09T16:29:20.655Z,100753.06
2022-09-09T16:31:47.847Z,100751.53
2022-09-09T16:34:15.779Z,100742.50
2022-09-09T16:36:43.308Z,100712.66
2022-09-09T16:39:12.342Z,100752.41
2022-09-09T16:41:40.482Z,100717.78
2022-09-09T16:44:09.372Z,100717.94
2022-09-09T16:46:39.862Z,100759.19
2022-09-09T16:49:08.610Z,100752.31
2022-09-09T16:51:38.572Z,100757.34
2022-09-09T16:54:09.625Z,100764.09
2022-09-09T16:56:44.146Z,100748.16
2022-09-09T16:59:16.727Z,100757.16
2022-09-09T17:01:48.628Z,100721.22
2022-09-09T17:04:21.343Z,100728.78
2022-09-09T17:06:53.732Z,100764.91
2022-09-09T17:09:21.220Z,100767.66
2022-09-09T17:11:48.872Z,100762.47
2022-09-09T17:14:18.427Z,100736.03
2022-09-09T17:16:45.199Z,100749.41
2022-09-09T17:19:12.499Z,100744.81
2022-09-09T17:21:54.508Z,100757.13
2022-09-09T17:24:27.462Z,100755.66
2022-09-09T17:26:55.286Z,100753.94
2022-09-09T17:29:22.189Z,100751.38
2022-09-09T17:31:48.521Z,100752.41
2022-09-09T17:34:15.249Z,100756.53
2022-09-09T17:36:41.908Z,100758.97
2022-09-09T17:39:08.344Z,100753.25
2022-09-09T17:41:39.406Z,100768.19
2022-09-09T17:46:41.842Z,100760.91
2022-09-09T17:49:12.886Z,100774.59
2022-09-09T17:51:41.591Z,100757.16
2022-09-09T17:54:10.756Z,100792.69
2022-09-09T17:56:38.665Z,100758.94
2022-09-09T17:59:07.220Z,100786.66
2022-09-09T18:01:36.336Z,100794.63
2022-09-09T18:04:06.223Z,100787.81
2022-09-09T18:06:39.188Z,100761.38
2022-09-09T18:09:08.601Z,100801.94
2022-09-09T18:11:43.058Z,100800.56
2022-09-09T18:14:12.766Z,100738.28
2022-09-09T18:16:40.766Z,100808.75
2022-09-09T18:19:12.396Z,100778.72
2022-09-09T18:21:39.191Z,100835.91
2022-09-09T18:24:06.890Z,100809.91
2022-09-09T18:26:35.231Z,100808.94
2022-09-09T18:29:06.527Z,100824.94
2022-09-09T18:31:34.253Z,100817.22
2022-09-09T18:34:03.582Z,100813.91
2022-09-09T18:36:38.983Z,100813.06
2022-09-09T18:39:08.080Z,100812.41
2022-09-09T18:41:37.232Z,100808.88
2022-09-09T18:44:09.161Z,100792.69
2022-09-09T18:46:37.627Z,100800.84
2022-09-09T18:49:05.958Z,100809.72
2022-09-09T18:51:37.170Z,100800.31
2022-09-09T18:54:11.829Z,100811.19
2022-09-09T18:56:38.924Z,100814.91
2022-09-09T18:59:08.358Z,100795.09
2022-09-09T19:01:35.712Z,100813.72
2022-09-09T19:04:04.232Z,100804.03
2022-09-09T19:06:32.553Z,100799.47
2022-09-09T19:09:03.140Z,100816.84
2022-09-09T19:11:30.487Z,100786.72
2022-09-09T19:14:02.414Z,100821.03
2022-09-09T19:16:31.526Z,100786.16
2022-09-09T19:19:00.761Z,100811.66
2022-09-09T19:21:30.226Z,100812.13
2022-09-09T19:24:06.320Z,100802.34
2022-09-09T19:26:40.680Z,100766.28
2022-09-09T19:29:14.364Z,100822.53
2022-09-09T19:31:55.156Z,100814.34
2022-09-09T19:34:28.813Z,100803.84
2022-09-09T19:36:55.441Z,100824.28
2022-09-09T19:39:21.857Z,100804.78
2022-09-09T19:41:49.101Z,100829.59
2022-09-09T19:44:17.080Z,100827.44
2022-09-09T19:46:46.567Z,100828.84
2022-09-09T19:49:13.493Z,100822.03
2022-09-09T19:51:40.032Z,100813.22
2022-09-09T19:54:09.159Z,100825.28
2022-09-09T19:56:37.849Z,100793.38
2022-09-09T19:59:06.315Z,100828.25
2022-09-09T20:01:40.394Z,100820.25
2022-09-09T20:04:07.995Z,100814.25
2022-09-09T20:06:40.499Z,100815.63
2022-09-09T20:09:10.451Z,100840.00
2022-09-09T20:11:38.454Z,100825.41
2022-09-09T20:14:05.288Z,100830.59
2022-09-09T20:16:31.956Z,100825.44
2022-09-09T20:19:02.141Z,100843.06
2022-09-09T20:21:31.866Z,100850.75
2022-09-09T20:24:00.854Z,100849.78
2022-09-09T20:26:30.367Z,100850.44
2022-09-09T20:28:56.781Z,100846.53
2022-09-09T20:31:26.449Z,100810.66
2022-09-09T20:33:54.882Z,100834.44
2022-09-09T20:36:25.186Z,100826.53
2022-09-09T20:38:54.655Z,100849.16
2022-09-09T20:41:22.740Z,100845.25
2022-09-09T20:43:53.635Z,100847.78
2022-09-09T20:46:22.900Z,100845.44
2022-09-09T20:48:51.342Z,100854.47
2022-09-09T20:51:20.270Z,100856.16
2022-09-09T20:53:47.461Z,100839.38
2022-09-09T20:56:16.892Z,100863.22
2022-09-09T20:58:43.837Z,100868.16
2022-09-09T21:01:15.241Z,100877.06
2022-09-09T21:03:41.639Z,100847.06
2022-09-09T21:06:08.686Z,100883.13
2022-09-09T21:08:36.048Z,100883.28
2022-09-09T21:11:03.609Z,100868.84
2022-09-09T21:13:31.395Z,100874.06
2022-09-09T21:15:58.562Z,100867.84
2022-09-09T21:18:27.309Z,100858.69
2022-09-09T21:20:54.264Z,100880.28
2022-09-09T21:23:21.223Z,100878.63
2022-09-09T21:25:48.075Z,100870.88
2022-09-09T21:28:15.465Z,100866.69
2022-09-09T21:30:44.225Z,100870.41
2022-09-09T21:33:11.496Z,100843.81
2022-09-09T21:35:39.520Z,100856.06
2022-09-09T21:38:07.594Z,100865.44
2022-09-09T21:40:37.917Z,100853.22
2022-09-09T21:43:06.124Z,100819.88
2022-09-09T21:45:35.803Z,100865.34
2022-09-09T21:48:02.319Z,100856.28
2022-09-09T21:50:29.339Z,100829.63
2022-09-09T21:52:55.981Z,100847.25
2022-09-09T21:55:22.651Z,100855.59
2022-09-09T21:57:50.358Z,100842.31
2022-09-09T22:00:18.128Z,100836.00
2022-09-09T22:02:44.957Z,100851.56
2022-09-09T22:05:12.883Z,100844.84
2022-09-09T22:07:40.041Z,100837.41
2022-09-09T22:10:07.654Z,100796.47
2022-09-09T22:12:35.078Z,100814.28
2022-09-09T22:15:01.853Z,100815.28
2022-09-09T22:17:28.283Z,100818.63
2022-09-09T22:19:54.772Z,100848.81
2022-09-09T22:22:21.259Z,100838.56
2022-09-09T22:24:47.596Z,100811.41
2022-09-09T22:27:15.666Z,100818.81
2022-09-09T22:29:42.412Z,100822.28
2022-09-09T22:32:10.142Z,100820.59
2022-09-09T22:34:37.772Z,100835.03
2022-09-09T22:37:05.824Z,100838.75
2022-09-09T22:39:32.597Z,100811.75
2022-09-09T22:41:59.659Z,100812.03
2022-09-09T22:44:26.899Z,100847.88
2022-09-09T22:46:56.434Z,100849.56
2022-09-09T22:49:23.600Z,100842.50
2022-09-09T22:51:50.125Z,100840.19
2022-09-09T22:54:21.631Z,100843.53
2022-09-09T22:56:49.646Z,100852.63
2022-09-09T22:59:16.163Z,100832.88
2022-09-09T23:01:42.945Z,100859.88
2022-09-09T23:04:09.670Z,100861.75
2022-09-09T23:06:38.604Z,100863.75
2022-09-09T23:09:05.397Z,100862.09
2022-09-09T23:11:36.985Z,100861.91
2022-09-09T23:14:06.543Z,100864.13
2022-09-09T23:16:38.199Z,100862.56
2022-09-09T23:19:09.989Z,100861.91
2022-09-09T23:21:41.900Z,100850.47
2022-09-09T23:24:11.515Z,100865.09
2022-09-09T23:26:38.627Z,100872.13
2022-09-09T23:29:05.222Z,100867.78
2022-09-09T23:31:37.743Z,100838.03
2022-09-09T23:34:04.798Z,100868.56
2022-09-09T23:36:31.534Z,100864.66
2022-09-09T23:38:59.974Z,100862.50
2022-09-09T23:41:26.972Z,100833.88
2022-09-09T23:43:54.055Z,100829.34
2022-09-09T23:46:29.657Z,100863.59
2022-09-09T23:48:58.401Z,100865.59
2022-09-09T23:51:28.095Z,100827.66
2022-09-09T23:53:56.837Z,100861.03
2022-09-09T23:56:26.204Z,100836.47
2022-09-09T23:58:53.196Z,100847.84
